Goessel, Kansas
Current Conditions -  °F | °C
As of 1:55 AM on Friday 31 Oct 2014 (Local Time) from KEWK Reporting Station
Clear Clear  
Wind Chill:   Ceiling: Unl
Heat Index:   Visibility: 10mi
Dew Point:   Wind: 16mph
Humidity: 66%   Direction: 360°N
Pressure: 30.35"   Gusts: NA
Location:  38.25°N, 97.35°W
Report Text: KEWK 310655Z AUTO 36014KT 10SM CLR 06/00 A3035 RMK AO1
Loading
Personal Weather Stations






























Interactive Weather Map
Tropical Storm Tracking
New forecast layout! Learn more

10-Day Weather Forecast

Advertisements
Track Severe Weather on mobile